Terminal Aerodrome Forecast
Issued by NWS

Current Version | Previous Version | Text Only | Print | Product List | Glossary On
Versions: 1 2 3 4 5 6 7 8 9 10 11 12 13 14
159
FTUS43 KMPX 040014 AAA
TAFRWF
TAF AMD
KRWF 040014Z 0400/0424 14010KT 5SM -SN OVC018
      TEMPO 0400/0403 2SM -SN BR OVC022
     FM040400 16010KT P6SM OVC015
     FM041500 22010KT P6SM OVC018
     FM042000 27010KT P6SM SCT020=

USA.gov is the U.S. government's official web portal to all federal, state and local government web resources and services.